sensor_id;sensor_type;location;lat;lon;timestamp;temperature;humidity
54178;DHT22;40085;53.004;6.770;2023-03-29T00:00:18;5.60;1.00
54178;DHT22;40085;53.004;6.770;2023-03-29T00:02:44;5.60;1.00
54178;DHT22;40085;53.004;6.770;2023-03-29T00:05:13;5.60;1.00
54178;DHT22;40085;53.004;6.770;2023-03-29T00:07:39;5.60;1.00
54178;DHT22;40085;53.004;6.770;2023-03-29T00:10:06;5.60;1.00
54178;DHT22;40085;53.004;6.770;2023-03-29T00:12:32;5.60;1.00
54178;DHT22;40085;53.004;6.770;2023-03-29T00:14:58;5.50;1.00
54178;DHT22;40085;53.004;6.770;2023-03-29T00:17:24;5.60;1.00
54178;DHT22;40085;53.004;6.770;2023-03-29T00:19:49;5.50;1.00
54178;DHT22;40085;53.004;6.770;2023-03-29T00:22:15;5.50;1.00
54178;DHT22;40085;53.004;6.770;2023-03-29T00:24:40;5.50;1.00
54178;DHT22;40085;53.004;6.770;2023-03-29T00:27:06;5.50;1.00
54178;DHT22;40085;53.004;6.770;2023-03-29T00:29:32;5.50;1.00
54178;DHT22;40085;53.004;6.770;2023-03-29T00:31:58;5.50;1.00
54178;DHT22;40085;53.004;6.770;2023-03-29T00:34:25;5.50;1.00
54178;DHT22;40085;53.004;6.770;2023-03-29T00:36:56;5.50;1.00
54178;DHT22;40085;53.004;6.770;2023-03-29T00:39:24;5.50;1.00
54178;DHT22;40085;53.004;6.770;2023-03-29T00:41:50;6.20;1.00
54178;DHT22;40085;53.004;6.770;2023-03-29T00:52:34;5.50;1.00
54178;DHT22;40085;53.004;6.770;2023-03-29T00:55:04;5.50;1.00
54178;DHT22;40085;53.004;6.770;2023-03-29T00:57:33;5.50;1.00
54178;DHT22;40085;53.004;6.770;2023-03-29T01:00:00;5.50;1.00
54178;DHT22;40085;53.004;6.770;2023-03-29T01:02:29;5.50;1.00
54178;DHT22;40085;53.004;6.770;2023-03-29T01:05:02;8.00;1.00
54178;DHT22;40085;53.004;6.770;2023-03-29T01:07:40;5.50;1.00
54178;DHT22;40085;53.004;6.770;2023-03-29T01:10:17;5.50;1.00
54178;DHT22;40085;53.004;6.770;2023-03-29T01:12:47;5.50;1.00
54178;DHT22;40085;53.004;6.770;2023-03-29T01:15:18;5.50;1.00
54178;DHT22;40085;53.004;6.770;2023-03-29T01:17:44;5.50;1.00
54178;DHT22;40085;53.004;6.770;2023-03-29T01:25:59;5.50;1.00
54178;DHT22;40085;53.004;6.770;2023-03-29T01:28:38;5.50;1.00
54178;DHT22;40085;53.004;6.770;2023-03-29T01:31:09;5.50;1.10
54178;DHT22;40085;53.004;6.770;2023-03-29T01:33:37;5.50;1.00
54178;DHT22;40085;53.004;6.770;2023-03-29T01:36:13;5.50;1.00
54178;DHT22;40085;53.004;6.770;2023-03-29T01:38:51;5.50;1.00
54178;DHT22;40085;53.004;6.770;2023-03-29T01:41:19;5.70;1.00
54178;DHT22;40085;53.004;6.770;2023-03-29T01:43:52;5.40;1.00
54178;DHT22;40085;53.004;6.770;2023-03-29T01:48:57;5.50;1.00
54178;DHT22;40085;53.004;6.770;2023-03-29T01:51:30;5.50;1.00
54178;DHT22;40085;53.004;6.770;2023-03-29T01:54:03;5.50;1.00
54178;DHT22;40085;53.004;6.770;2023-03-29T01:56:34;5.50;1.00
54178;DHT22;40085;53.004;6.770;2023-03-29T01:59:03;5.50;1.00
54178;DHT22;40085;53.004;6.770;2023-03-29T02:01:34;5.50;1.00
54178;DHT22;40085;53.004;6.770;2023-03-29T02:04:08;5.50;1.00
54178;DHT22;40085;53.004;6.770;2023-03-29T02:06:35;5.50;4.20
54178;DHT22;40085;53.004;6.770;2023-03-29T02:09:02;5.50;1.00
54178;DHT22;40085;53.004;6.770;2023-03-29T02:11:29;5.50;1.00
54178;DHT22;40085;53.004;6.770;2023-03-29T02:13:55;5.50;1.00
54178;DHT22;40085;53.004;6.770;2023-03-29T02:16:21;5.50;3.50
54178;DHT22;40085;53.004;6.770;2023-03-29T02:18:49;5.50;1.70
54178;DHT22;40085;53.004;6.770;2023-03-29T02:21:48;5.50;13.90
54178;DHT22;40085;53.004;6.770;2023-03-29T02:24:17;5.50;10.50
54178;DHT22;40085;53.004;6.770;2023-03-29T02:26:43;5.40;26.30
54178;DHT22;40085;53.004;6.770;2023-03-29T02:29:09;5.40;25.60
54178;DHT22;40085;53.004;6.770;2023-03-29T02:31:48;5.40;27.40
54178;DHT22;40085;53.004;6.770;2023-03-29T02:34:39;5.40;26.50
54178;DHT22;40085;53.004;6.770;2023-03-29T02:37:10;5.40;30.40
54178;DHT22;40085;53.004;6.770;2023-03-29T02:39:38;5.40;30.00
54178;DHT22;40085;53.004;6.770;2023-03-29T02:42:05;5.40;28.70
54178;DHT22;40085;53.004;6.770;2023-03-29T02:44:34;5.40;28.70
54178;DHT22;40085;53.004;6.770;2023-03-29T02:47:06;5.50;27.30
54178;DHT22;40085;53.004;6.770;2023-03-29T02:49:33;5.40;32.90
54178;DHT22;40085;53.004;6.770;2023-03-29T02:52:05;5.50;26.70
54178;DHT22;40085;53.004;6.770;2023-03-29T02:54:33;5.40;26.10
54178;DHT22;40085;53.004;6.770;2023-03-29T02:57:03;5.50;24.30
54178;DHT22;40085;53.004;6.770;2023-03-29T02:59:33;5.50;36.20
54178;DHT22;40085;53.004;6.770;2023-03-29T03:01:59;5.50;30.50
54178;DHT22;40085;53.004;6.770;2023-03-29T03:04:25;5.70;25.40
54178;DHT22;40085;53.004;6.770;2023-03-29T03:06:51;5.50;32.30
54178;DHT22;40085;53.004;6.770;2023-03-29T03:09:17;5.50;30.60
54178;DHT22;40085;53.004;6.770;2023-03-29T03:11:43;5.50;31.70
54178;DHT22;40085;53.004;6.770;2023-03-29T03:14:09;5.50;30.70
54178;DHT22;40085;53.004;6.770;2023-03-29T03:16:35;5.50;24.70
54178;DHT22;40085;53.004;6.770;2023-03-29T03:19:01;5.50;26.00
54178;DHT22;40085;53.004;6.770;2023-03-29T03:21:27;5.50;24.10
54178;DHT22;40085;53.004;6.770;2023-03-29T03:23:53;5.50;28.40
54178;DHT22;40085;53.004;6.770;2023-03-29T03:26:21;5.50;34.20
54178;DHT22;40085;53.004;6.770;2023-03-29T03:28:47;5.50;31.60
54178;DHT22;40085;53.004;6.770;2023-03-29T03:31:13;5.50;37.20
54178;DHT22;40085;53.004;6.770;2023-03-29T03:33:39;5.50;32.30
54178;DHT22;40085;53.004;6.770;2023-03-29T03:36:09;5.50;35.50
54178;DHT22;40085;53.004;6.770;2023-03-29T03:38:36;5.60;30.70
54178;DHT22;40085;53.004;6.770;2023-03-29T03:41:02;5.50;38.20
54178;DHT22;40085;53.004;6.770;2023-03-29T03:43:28;5.50;34.20
54178;DHT22;40085;53.004;6.770;2023-03-29T03:45:54;6.30;37.50
54178;DHT22;40085;53.004;6.770;2023-03-29T03:48:21;5.60;40.00
54178;DHT22;40085;53.004;6.770;2023-03-29T03:50:57;5.50;36.40
54178;DHT22;40085;53.004;6.770;2023-03-29T03:53:24;5.60;38.70
54178;DHT22;40085;53.004;6.770;2023-03-29T03:55:51;5.60;36.60
54178;DHT22;40085;53.004;6.770;2023-03-29T03:58:18;5.60;32.40
54178;DHT22;40085;53.004;6.770;2023-03-29T04:00:47;5.60;39.30
54178;DHT22;40085;53.004;6.770;2023-03-29T04:03:13;5.60;40.00
54178;DHT22;40085;53.004;6.770;2023-03-29T04:05:41;5.60;41.20
54178;DHT22;40085;53.004;6.770;2023-03-29T04:08:07;5.60;40.10
54178;DHT22;40085;53.004;6.770;2023-03-29T04:10:34;5.60;42.20
54178;DHT22;40085;53.004;6.770;2023-03-29T04:13:00;5.60;39.50
54178;DHT22;40085;53.004;6.770;2023-03-29T04:15:30;5.60;35.10
54178;DHT22;40085;53.004;6.770;2023-03-29T04:17:57;5.60;40.90
54178;DHT22;40085;53.004;6.770;2023-03-29T04:20:23;5.90;38.70
54178;DHT22;40085;53.004;6.770;2023-03-29T04:22:50;5.70;41.80
54178;DHT22;40085;53.004;6.770;2023-03-29T04:25:16;5.60;37.40
54178;DHT22;40085;53.004;6.770;2023-03-29T04:27:43;5.70;40.30
54178;DHT22;40085;53.004;6.770;2023-03-29T04:30:09;5.70;31.50
54178;DHT22;40085;53.004;6.770;2023-03-29T04:32:36;5.70;28.80
54178;DHT22;40085;53.004;6.770;2023-03-29T04:35:01;5.70;31.20
54178;DHT22;40085;53.004;6.770;2023-03-29T04:37:32;5.70;34.80
54178;DHT22;40085;53.004;6.770;2023-03-29T04:39:58;5.70;40.90
54178;DHT22;40085;53.004;6.770;2023-03-29T04:42:29;5.80;34.10
54178;DHT22;40085;53.004;6.770;2023-03-29T04:44:54;5.80;42.00
54178;DHT22;40085;53.004;6.770;2023-03-29T04:47:21;5.70;40.00
54178;DHT22;40085;53.004;6.770;2023-03-29T04:49:47;5.70;44.20
54178;DHT22;40085;53.004;6.770;2023-03-29T04:52:13;5.80;42.20
54178;DHT22;40085;53.004;6.770;2023-03-29T04:54:39;5.80;53.10
54178;DHT22;40085;53.004;6.770;2023-03-29T04:57:06;5.80;54.70
54178;DHT22;40085;53.004;6.770;2023-03-29T04:59:32;5.80;56.00
54178;DHT22;40085;53.004;6.770;2023-03-29T05:01:58;5.80;65.30
54178;DHT22;40085;53.004;6.770;2023-03-29T05:04:25;5.70;62.20
54178;DHT22;40085;53.004;6.770;2023-03-29T05:06:52;5.80;64.70
54178;DHT22;40085;53.004;6.770;2023-03-29T05:09:18;5.80;66.80
54178;DHT22;40085;53.004;6.770;2023-03-29T05:11:44;5.80;70.30
54178;DHT22;40085;53.004;6.770;2023-03-29T05:14:10;5.80;72.30
54178;DHT22;40085;53.004;6.770;2023-03-29T05:16:35;5.80;74.10
54178;DHT22;40085;53.004;6.770;2023-03-29T05:19:02;5.70;73.60
54178;DHT22;40085;53.004;6.770;2023-03-29T05:21:28;5.80;74.90
54178;DHT22;40085;53.004;6.770;2023-03-29T05:23:54;5.80;75.40
54178;DHT22;40085;53.004;6.770;2023-03-29T05:26:21;5.80;78.10
54178;DHT22;40085;53.004;6.770;2023-03-29T05:28:48;5.80;79.70
54178;DHT22;40085;53.004;6.770;2023-03-29T05:31:14;5.80;77.60
54178;DHT22;40085;53.004;6.770;2023-03-29T05:33:39;5.80;79.70
54178;DHT22;40085;53.004;6.770;2023-03-29T05:36:07;5.80;84.70
54178;DHT22;40085;53.004;6.770;2023-03-29T05:38:34;5.80;86.20
54178;DHT22;40085;53.004;6.770;2023-03-29T05:41:00;5.80;90.10
54178;DHT22;40085;53.004;6.770;2023-03-29T05:43:26;5.80;91.00
54178;DHT22;40085;53.004;6.770;2023-03-29T05:45:55;5.80;90.80
54178;DHT22;40085;53.004;6.770;2023-03-29T05:48:21;5.80;91.10
54178;DHT22;40085;53.004;6.770;2023-03-29T05:50:49;5.80;94.00
54178;DHT22;40085;53.004;6.770;2023-03-29T05:53:16;5.80;94.60
54178;DHT22;40085;53.004;6.770;2023-03-29T05:55:42;5.80;94.90
54178;DHT22;40085;53.004;6.770;2023-03-29T05:58:08;5.80;96.90
54178;DHT22;40085;53.004;6.770;2023-03-29T06:00:35;5.80;99.00
54178;DHT22;40085;53.004;6.770;2023-03-29T06:03:04;5.80;99.90
54178;DHT22;40085;53.004;6.770;2023-03-29T06:05:32;5.80;99.90
54178;DHT22;40085;53.004;6.770;2023-03-29T06:07:57;5.80;99.90
54178;DHT22;40085;53.004;6.770;2023-03-29T06:10:23;5.80;99.90
54178;DHT22;40085;53.004;6.770;2023-03-29T06:12:49;5.80;99.90
54178;DHT22;40085;53.004;6.770;2023-03-29T06:15:15;5.80;99.90
54178;DHT22;40085;53.004;6.770;2023-03-29T06:17:42;5.80;99.90
54178;DHT22;40085;53.004;6.770;2023-03-29T06:20:10;5.80;99.90
54178;DHT22;40085;53.004;6.770;2023-03-29T06:22:40;5.80;99.90
54178;DHT22;40085;53.004;6.770;2023-03-29T06:25:08;5.80;99.90
54178;DHT22;40085;53.004;6.770;2023-03-29T06:27:35;5.80;99.90
54178;DHT22;40085;53.004;6.770;2023-03-29T06:30:02;5.80;99.90
54178;DHT22;40085;53.004;6.770;2023-03-29T06:32:28;5.80;99.90
54178;DHT22;40085;53.004;6.770;2023-03-29T06:34:54;5.80;99.90
54178;DHT22;40085;53.004;6.770;2023-03-29T06:37:20;5.80;99.90
54178;DHT22;40085;53.004;6.770;2023-03-29T06:39:46;5.80;99.90
54178;DHT22;40085;53.004;6.770;2023-03-29T06:42:18;5.90;99.90
54178;DHT22;40085;53.004;6.770;2023-03-29T06:44:44;6.60;99.90
54178;DHT22;40085;53.004;6.770;2023-03-29T06:47:12;5.90;99.90
54178;DHT22;40085;53.004;6.770;2023-03-29T06:49:37;5.90;99.90
54178;DHT22;40085;53.004;6.770;2023-03-29T06:52:04;6.00;99.90
54178;DHT22;40085;53.004;6.770;2023-03-29T06:54:29;6.00;99.90
54178;DHT22;40085;53.004;6.770;2023-03-29T06:56:56;6.00;99.90
54178;DHT22;40085;53.004;6.770;2023-03-29T06:59:22;6.10;99.90
54178;DHT22;40085;53.004;6.770;2023-03-29T07:01:48;6.00;99.90
54178;DHT22;40085;53.004;6.770;2023-03-29T07:04:13;6.10;99.90
54178;DHT22;40085;53.004;6.770;2023-03-29T07:06:39;6.10;99.90
54178;DHT22;40085;53.004;6.770;2023-03-29T07:09:05;6.20;99.90
54178;DHT22;40085;53.004;6.770;2023-03-29T07:11:32;6.20;99.90
54178;DHT22;40085;53.004;6.770;2023-03-29T07:14:01;6.20;99.90
54178;DHT22;40085;53.004;6.770;2023-03-29T07:16:27;6.20;99.90
54178;DHT22;40085;53.004;6.770;2023-03-29T07:18:53;6.20;99.90
54178;DHT22;40085;53.004;6.770;2023-03-29T07:21:19;6.20;99.90
54178;DHT22;40085;53.004;6.770;2023-03-29T07:23:45;6.20;99.90
54178;DHT22;40085;53.004;6.770;2023-03-29T07:26:11;6.20;99.90
54178;DHT22;40085;53.004;6.770;2023-03-29T07:28:37;6.30;99.90
54178;DHT22;40085;53.004;6.770;2023-03-29T07:31:05;6.20;99.90
54178;DHT22;40085;53.004;6.770;2023-03-29T07:33:32;6.20;99.90
54178;DHT22;40085;53.004;6.770;2023-03-29T07:35:59;6.30;99.90
54178;DHT22;40085;53.004;6.770;2023-03-29T07:38:25;6.30;99.90
54178;DHT22;40085;53.004;6.770;2023-03-29T07:40:51;6.40;99.90
54178;DHT22;40085;53.004;6.770;2023-03-29T07:43:19;6.50;99.90
54178;DHT22;40085;53.004;6.770;2023-03-29T07:45:45;6.50;99.90
54178;DHT22;40085;53.004;6.770;2023-03-29T07:48:11;6.60;99.90
54178;DHT22;40085;53.004;6.770;2023-03-29T07:50:37;6.60;99.90
54178;DHT22;40085;53.004;6.770;2023-03-29T07:53:03;6.70;99.90
54178;DHT22;40085;53.004;6.770;2023-03-29T07:55:29;6.70;99.90
54178;DHT22;40085;53.004;6.770;2023-03-29T07:57:55;6.80;99.90
54178;DHT22;40085;53.004;6.770;2023-03-29T08:00:21;6.70;99.90
54178;DHT22;40085;53.004;6.770;2023-03-29T08:02:50;6.80;99.90
54178;DHT22;40085;53.004;6.770;2023-03-29T08:05:17;6.80;99.90
54178;DHT22;40085;53.004;6.770;2023-03-29T08:07:44;6.80;99.90
54178;DHT22;40085;53.004;6.770;2023-03-29T08:10:16;6.80;99.90
54178;DHT22;40085;53.004;6.770;2023-03-29T08:12:43;6.90;99.90
54178;DHT22;40085;53.004;6.770;2023-03-29T08:15:10;6.90;99.90
54178;DHT22;40085;53.004;6.770;2023-03-29T08:17:36;6.90;99.90
54178;DHT22;40085;53.004;6.770;2023-03-29T08:20:03;7.00;99.90
54178;DHT22;40085;53.004;6.770;2023-03-29T08:22:31;7.00;99.90
54178;DHT22;40085;53.004;6.770;2023-03-29T08:24:57;7.00;99.90
54178;DHT22;40085;53.004;6.770;2023-03-29T08:27:23;7.10;99.90
54178;DHT22;40085;53.004;6.770;2023-03-29T08:29:49;7.10;99.90
54178;DHT22;40085;53.004;6.770;2023-03-29T08:32:14;7.20;99.90
54178;DHT22;40085;53.004;6.770;2023-03-29T08:34:40;7.30;99.90
54178;DHT22;40085;53.004;6.770;2023-03-29T08:37:06;7.60;99.90
54178;DHT22;40085;53.004;6.770;2023-03-29T08:39:33;8.20;99.90
54178;DHT22;40085;53.004;6.770;2023-03-29T08:45:00;7.50;99.90
54178;DHT22;40085;53.004;6.770;2023-03-29T08:47:40;7.60;99.90
54178;DHT22;40085;53.004;6.770;2023-03-29T08:50:10;7.70;99.90
54178;DHT22;40085;53.004;6.770;2023-03-29T08:52:50;7.80;99.90
54178;DHT22;40085;53.004;6.770;2023-03-29T08:55:26;7.90;95.50
54178;DHT22;40085;53.004;6.770;2023-03-29T08:57:54;8.00;92.80
54178;DHT22;40085;53.004;6.770;2023-03-29T09:00:31;8.80;93.20
54178;DHT22;40085;53.004;6.770;2023-03-29T09:02:58;8.20;84.20
54178;DHT22;40085;53.004;6.770;2023-03-29T09:05:29;8.40;81.50
54178;DHT22;40085;53.004;6.770;2023-03-29T09:07:58;8.60;58.30
54178;DHT22;40085;53.004;6.770;2023-03-29T09:10:34;8.70;53.60
54178;DHT22;40085;53.004;6.770;2023-03-29T09:18:51;9.00;31.00
54178;DHT22;40085;53.004;6.770;2023-03-29T09:22:12;9.70;27.30
54178;DHT22;40085;53.004;6.770;2023-03-29T09:24:13;9.20;11.30
54178;DHT22;40085;53.004;6.770;2023-03-29T09:26:59;9.20;9.80
54178;DHT22;40085;53.004;6.770;2023-03-29T09:32:02;9.40;1.00
54178;DHT22;40085;53.004;6.770;2023-03-29T09:34:37;9.40;1.00
54178;DHT22;40085;53.004;6.770;2023-03-29T09:37:12;9.40;1.00
54178;DHT22;40085;53.004;6.770;2023-03-29T09:39:41;9.40;1.00
54178;DHT22;40085;53.004;6.770;2023-03-29T09:42:07;11.70;1.00
54178;DHT22;40085;53.004;6.770;2023-03-29T09:44:43;9.60;1.00
54178;DHT22;40085;53.004;6.770;2023-03-29T09:47:27;9.60;1.00
54178;DHT22;40085;53.004;6.770;2023-03-29T09:49:58;9.70;1.00
54178;DHT22;40085;53.004;6.770;2023-03-29T09:52:26;9.80;1.00
54178;DHT22;40085;53.004;6.770;2023-03-29T09:54:52;9.90;1.00
54178;DHT22;40085;53.004;6.770;2023-03-29T09:57:18;9.90;1.00
54178;DHT22;40085;53.004;6.770;2023-03-29T09:59:49;10.10;1.00
54178;DHT22;40085;53.004;6.770;2023-03-29T10:02:18;10.00;1.00
54178;DHT22;40085;53.004;6.770;2023-03-29T10:04:44;10.00;1.00
54178;DHT22;40085;53.004;6.770;2023-03-29T10:07:18;10.30;99.90
54178;DHT22;40085;53.004;6.770;2023-03-29T10:09:45;10.30;99.90
54178;DHT22;40085;53.004;6.770;2023-03-29T10:12:15;10.20;99.90
54178;DHT22;40085;53.004;6.770;2023-03-29T10:14:46;10.50;1.00
54178;DHT22;40085;53.004;6.770;2023-03-29T10:17:23;11.10;99.90
54178;DHT22;40085;53.004;6.770;2023-03-29T10:19:50;10.70;99.90
54178;DHT22;40085;53.004;6.770;2023-03-29T10:22:22;10.80;99.90
54178;DHT22;40085;53.004;6.770;2023-03-29T10:24:49;11.00;99.90
54178;DHT22;40085;53.004;6.770;2023-03-29T10:27:22;10.80;99.90
54178;DHT22;40085;53.004;6.770;2023-03-29T10:29:49;10.60;99.90
54178;DHT22;40085;53.004;6.770;2023-03-29T10:32:30;10.60;99.90
54178;DHT22;40085;53.004;6.770;2023-03-29T10:35:12;10.50;99.90
54178;DHT22;40085;53.004;6.770;2023-03-29T10:37:44;10.70;99.90
54178;DHT22;40085;53.004;6.770;2023-03-29T10:40:33;11.00;99.90
54178;DHT22;40085;53.004;6.770;2023-03-29T10:43:10;10.70;99.90
54178;DHT22;40085;53.004;6.770;2023-03-29T10:45:38;11.80;99.90
54178;DHT22;40085;53.004;6.770;2023-03-29T10:48:04;11.00;99.90
54178;DHT22;40085;53.004;6.770;2023-03-29T10:50:33;10.90;99.90
54178;DHT22;40085;53.004;6.770;2023-03-29T10:53:00;11.00;99.90
54178;DHT22;40085;53.004;6.770;2023-03-29T10:55:33;11.10;99.90
54178;DHT22;40085;53.004;6.770;2023-03-29T10:58:21;11.00;99.90
54178;DHT22;40085;53.004;6.770;2023-03-29T11:00:56;11.40;99.90
54178;DHT22;40085;53.004;6.770;2023-03-29T11:06:10;11.60;99.90
54178;DHT22;40085;53.004;6.770;2023-03-29T11:11:35;12.00;99.90
54178;DHT22;40085;53.004;6.770;2023-03-29T11:14:08;12.10;63.70
54178;DHT22;40085;53.004;6.770;2023-03-29T11:19:50;12.60;76.10
54178;DHT22;40085;53.004;6.770;2023-03-29T11:27:58;13.00;99.90
54178;DHT22;40085;53.004;6.770;2023-03-29T11:33:19;13.20;99.90
54178;DHT22;40085;53.004;6.770;2023-03-29T11:36:16;13.00;99.90
54178;DHT22;40085;53.004;6.770;2023-03-29T11:39:01;13.00;99.90
54178;DHT22;40085;53.004;6.770;2023-03-29T11:41:34;13.20;99.90
54178;DHT22;40085;53.004;6.770;2023-03-29T11:44:08;13.50;99.90
54178;DHT22;40085;53.004;6.770;2023-03-29T11:46:40;13.10;99.90
54178;DHT22;40085;53.004;6.770;2023-03-29T11:49:22;13.20;99.90
54178;DHT22;40085;53.004;6.770;2023-03-29T11:51:52;13.10;99.90
54178;DHT22;40085;53.004;6.770;2023-03-29T11:57:17;13.20;99.90
54178;DHT22;40085;53.004;6.770;2023-03-29T12:02:36;13.40;50.30
54178;DHT22;40085;53.004;6.770;2023-03-29T12:05:21;13.50;56.00
54178;DHT22;40085;53.004;6.770;2023-03-29T12:07:55;13.60;1.00
54178;DHT22;40085;53.004;6.770;2023-03-29T12:10:42;13.60;99.90
54178;DHT22;40085;53.004;6.770;2023-03-29T12:13:27;13.60;1.00
54178;DHT22;40085;53.004;6.770;2023-03-29T12:16:00;13.70;1.00
54178;DHT22;40085;53.004;6.770;2023-03-29T12:18:31;13.80;1.00
54178;DHT22;40085;53.004;6.770;2023-03-29T12:21:00;14.20;99.90
54178;DHT22;40085;53.004;6.770;2023-03-29T12:23:29;14.00;99.90
54178;DHT22;40085;53.004;6.770;2023-03-29T12:26:06;14.30;99.90
54178;DHT22;40085;53.004;6.770;2023-03-29T12:28:55;14.40;99.90
54178;DHT22;40085;53.004;6.770;2023-03-29T12:31:58;14.70;99.90
54178;DHT22;40085;53.004;6.770;2023-03-29T12:34:37;14.50;99.90
54178;DHT22;40085;53.004;6.770;2023-03-29T12:39:49;14.60;1.00
54178;DHT22;40085;53.004;6.770;2023-03-29T12:42:21;14.70;1.00
54178;DHT22;40085;53.004;6.770;2023-03-29T12:44:57;14.80;99.90
54178;DHT22;40085;53.004;6.770;2023-03-29T12:47:31;14.90;42.80
54178;DHT22;40085;53.004;6.770;2023-03-29T12:49:59;14.80;99.90
54178;DHT22;40085;53.004;6.770;2023-03-29T12:52:35;14.80;99.90
54178;DHT22;40085;53.004;6.770;2023-03-29T12:55:04;15.10;99.90
54178;DHT22;40085;53.004;6.770;2023-03-29T12:57:43;14.80;76.00
54178;DHT22;40085;53.004;6.770;2023-03-29T13:00:55;14.80;99.90
54178;DHT22;40085;53.004;6.770;2023-03-29T13:03:38;14.80;99.90
54178;DHT22;40085;53.004;6.770;2023-03-29T13:06:06;14.80;99.90
54178;DHT22;40085;53.004;6.770;2023-03-29T13:08:42;14.70;99.90
54178;DHT22;40085;53.004;6.770;2023-03-29T13:11:24;15.50;88.80
54178;DHT22;40085;53.004;6.770;2023-03-29T13:13:52;14.50;99.90
54178;DHT22;40085;53.004;6.770;2023-03-29T13:16:37;14.30;99.90
54178;DHT22;40085;53.004;6.770;2023-03-29T13:22:14;14.20;99.90
54178;DHT22;40085;53.004;6.770;2023-03-29T13:27:56;13.90;99.90
54178;DHT22;40085;53.004;6.770;2023-03-29T13:30:20;13.90;88.00
54178;DHT22;40085;53.004;6.770;2023-03-29T13:36:08;13.80;99.90
54178;DHT22;40085;53.004;6.770;2023-03-29T13:38:44;13.80;99.90
54178;DHT22;40085;53.004;6.770;2023-03-29T13:44:03;13.90;78.00
54178;DHT22;40085;53.004;6.770;2023-03-29T13:46:36;13.90;1.00
54178;DHT22;40085;53.004;6.770;2023-03-29T13:49:11;14.30;99.90
54178;DHT22;40085;53.004;6.770;2023-03-29T13:54:32;13.80;57.10
54178;DHT22;40085;53.004;6.770;2023-03-29T13:57:16;13.80;1.00
54178;DHT22;40085;53.004;6.770;2023-03-29T14:02:36;13.80;1.00
54178;DHT22;40085;53.004;6.770;2023-03-29T14:05:07;13.90;29.20
54178;DHT22;40085;53.004;6.770;2023-03-29T14:07:37;14.00;75.90
54178;DHT22;40085;53.004;6.770;2023-03-29T14:10:03;14.00;99.60
54178;DHT22;40085;53.004;6.770;2023-03-29T14:12:36;14.10;99.90
54178;DHT22;40085;53.004;6.770;2023-03-29T14:15:04;14.20;7.00
54178;DHT22;40085;53.004;6.770;2023-03-29T14:17:30;14.20;99.90
54178;DHT22;40085;53.004;6.770;2023-03-29T14:19:58;14.40;99.90
54178;DHT22;40085;53.004;6.770;2023-03-29T14:22:29;14.60;99.90
54178;DHT22;40085;53.004;6.770;2023-03-29T14:24:55;14.80;53.80
54178;DHT22;40085;53.004;6.770;2023-03-29T14:27:29;14.90;99.90
54178;DHT22;40085;53.004;6.770;2023-03-29T14:29:56;15.10;1.00
54178;DHT22;40085;53.004;6.770;2023-03-29T14:32:29;15.10;99.90
54178;DHT22;40085;53.004;6.770;2023-03-29T14:34:56;15.00;99.90
54178;DHT22;40085;53.004;6.770;2023-03-29T14:37:27;15.20;99.90
54178;DHT22;40085;53.004;6.770;2023-03-29T14:39:53;14.80;52.40
54178;DHT22;40085;53.004;6.770;2023-03-29T14:42:23;14.70;99.90
54178;DHT22;40085;53.004;6.770;2023-03-29T14:45:04;14.40;99.90
54178;DHT22;40085;53.004;6.770;2023-03-29T14:47:31;14.20;99.90
54178;DHT22;40085;53.004;6.770;2023-03-29T14:49:58;14.00;83.10
54178;DHT22;40085;53.004;6.770;2023-03-29T14:52:26;13.80;99.90
54178;DHT22;40085;53.004;6.770;2023-03-29T14:54:54;13.70;1.00
54178;DHT22;40085;53.004;6.770;2023-03-29T14:57:29;13.60;99.90
54178;DHT22;40085;53.004;6.770;2023-03-29T15:00:03;13.50;99.90
54178;DHT22;40085;53.004;6.770;2023-03-29T15:02:37;13.60;1.00
54178;DHT22;40085;53.004;6.770;2023-03-29T15:05:31;13.60;1.00
54178;DHT22;40085;53.004;6.770;2023-03-29T15:07:57;13.70;1.00
54178;DHT22;40085;53.004;6.770;2023-03-29T15:10:23;13.80;7.80
54178;DHT22;40085;53.004;6.770;2023-03-29T15:12:50;13.90;99.90
54178;DHT22;40085;53.004;6.770;2023-03-29T15:15:16;14.00;94.00
54178;DHT22;40085;53.004;6.770;2023-03-29T15:17:43;14.10;99.90
54178;DHT22;40085;53.004;6.770;2023-03-29T15:20:20;14.10;92.90
54178;DHT22;40085;53.004;6.770;2023-03-29T15:26:05;14.10;46.20
54178;DHT22;40085;53.004;6.770;2023-03-29T15:28:33;13.90;1.30
54178;DHT22;40085;53.004;6.770;2023-03-29T15:33:32;13.80;99.90
54178;DHT22;40085;53.004;6.770;2023-03-29T15:35:58;13.60;99.90
54178;DHT22;40085;53.004;6.770;2023-03-29T15:38:24;13.60;1.00
54178;DHT22;40085;53.004;6.770;2023-03-29T15:40:50;13.60;99.90
54178;DHT22;40085;53.004;6.770;2023-03-29T15:43:16;13.50;99.90
54178;DHT22;40085;53.004;6.770;2023-03-29T15:45:44;13.40;99.90
54178;DHT22;40085;53.004;6.770;2023-03-29T15:48:25;13.30;1.00
54178;DHT22;40085;53.004;6.770;2023-03-29T15:50:51;13.30;1.00
54178;DHT22;40085;53.004;6.770;2023-03-29T15:53:16;13.20;1.00
54178;DHT22;40085;53.004;6.770;2023-03-29T15:55:47;13.10;48.20
54178;DHT22;40085;53.004;6.770;2023-03-29T15:58:18;13.20;99.90
54178;DHT22;40085;53.004;6.770;2023-03-29T16:00:50;13.00;99.90
54178;DHT22;40085;53.004;6.770;2023-03-29T16:03:16;12.90;99.90
54178;DHT22;40085;53.004;6.770;2023-03-29T16:05:43;12.90;99.90
54178;DHT22;40085;53.004;6.770;2023-03-29T16:08:12;12.80;99.90
54178;DHT22;40085;53.004;6.770;2023-03-29T16:10:39;12.80;99.90
54178;DHT22;40085;53.004;6.770;2023-03-29T16:13:05;12.80;99.90
54178;DHT22;40085;53.004;6.770;2023-03-29T16:15:32;12.70;99.90
54178;DHT22;40085;53.004;6.770;2023-03-29T16:17:58;12.70;99.90
54178;DHT22;40085;53.004;6.770;2023-03-29T16:20:24;12.70;99.90
54178;DHT22;40085;53.004;6.770;2023-03-29T16:22:50;12.60;99.90
54178;DHT22;40085;53.004;6.770;2023-03-29T16:25:18;12.50;1.00
54178;DHT22;40085;53.004;6.770;2023-03-29T16:27:47;12.50;1.00
54178;DHT22;40085;53.004;6.770;2023-03-29T16:30:13;12.50;1.00
54178;DHT22;40085;53.004;6.770;2023-03-29T16:32:39;12.40;1.00
54178;DHT22;40085;53.004;6.770;2023-03-29T16:35:26;12.40;1.00
54178;DHT22;40085;53.004;6.770;2023-03-29T16:37:52;12.40;1.00
54178;DHT22;40085;53.004;6.770;2023-03-29T16:40:17;12.40;1.00
54178;DHT22;40085;53.004;6.770;2023-03-29T16:42:43;12.40;1.00
54178;DHT22;40085;53.004;6.770;2023-03-29T16:45:16;12.30;1.00
54178;DHT22;40085;53.004;6.770;2023-03-29T16:47:42;12.80;1.00
54178;DHT22;40085;53.004;6.770;2023-03-29T16:50:13;12.30;1.00
54178;DHT22;40085;53.004;6.770;2023-03-29T16:52:39;12.30;1.00
54178;DHT22;40085;53.004;6.770;2023-03-29T16:55:07;12.20;1.00
54178;DHT22;40085;53.004;6.770;2023-03-29T16:57:33;12.20;1.00
54178;DHT22;40085;53.004;6.770;2023-03-29T16:59:59;12.20;1.00
54178;DHT22;40085;53.004;6.770;2023-03-29T17:02:24;12.20;16.60
54178;DHT22;40085;53.004;6.770;2023-03-29T17:04:50;12.10;32.80
54178;DHT22;40085;53.004;6.770;2023-03-29T17:07:16;13.00;50.00
54178;DHT22;40085;53.004;6.770;2023-03-29T17:09:42;11.90;75.70
54178;DHT22;40085;53.004;6.770;2023-03-29T17:12:10;11.90;78.40
54178;DHT22;40085;53.004;6.770;2023-03-29T17:14:36;11.80;90.60
54178;DHT22;40085;53.004;6.770;2023-03-29T17:17:02;11.80;92.90